Aviation Digital Data Service (ADDS)

Output produced by METARs form (1831 UTC 25 September 2020)
found at http://www.aviationweather.gov/metar/data/
 
KDRO 251753Z AUTO 23009KT 10SM CLR 25/M01 A3025 RMK AO2 SLP161 T02501011 10250 20044 58005
KDRO 251732Z 2518/2618 36003KT P6SM FEW250 
     FM252000 26012G22KT P6SM FEW250 
     FM260300 33006KT P6SM FEW250 
     FM261000 VRB03KT P6SM FEW250
       
KFMN 251753Z 00000KT 10SM CLR 26/M03 A3019 RMK AO2 SLP171 T02561028 10256 20094 58000
KFMN 251723Z 2518/2618 12006KT P6SM SKC 
     FM252000 27011G20KT P6SM SKC 
     FM260300 VRB05KT P6SM SKC 
     FM260800 08006KT P6SM SKC 
     FM261700 27010KT P6SM SKC